Head Waters, Virginia
Current Conditions -  °F | °C
As of 3:35 AM on Friday 31 Oct 2014 (Local Time) from KVBW Reporting Station
Broken Clouds Broken Clouds  
Wind Chill: 32°   Ceiling: 5000
Heat Index: 32°   Visibility: 10mi
Dew Point: 30°   Wind: 0mph
Humidity: 94%   Direction: NA
Pressure: 30.02"   Gusts: NA
Location:  38.32°N, 79.41°W
Report Text: KVBW 310735Z AUTO 00000KT 10SM BKN050 00/M01 A3002 RMK AO2 T10011010
Loading
Personal Weather Stations






























Interactive Weather Map
Tropical Storm Tracking
New forecast layout! Learn more

10-Day Weather Forecast

Advertisements
Track Severe Weather on mobile